Time;durP1;ratioP1;P1;durP2;ratioP2;P2;SDS_P1;SDS_P2;PMS_P1;PMS_P2;Temp;Humidity;BMP_temperature;BMP_pressure;BME280_temperature;BME280_humidity;BME280_pressure;Samples;Min_cycle;Max_cycle;Signal;HPM_P1;HPM_P2
2022/11/02 00:00:19;;;;;;;19.05;3.13;;;11.90;99.90;;;;;;4985895;28;37604;-82
2022/11/02 00:02:47;;;;;;;16.92;3.05;;;12.00;99.90;;;;;;4990757;28;38532;-83
2022/11/02 00:05:14;;;;;;;10.90;2.70;;;12.10;99.90;;;;;;4977058;28;37613;-81
2022/11/02 00:07:41;;;;;;;12.63;2.78;;;12.10;99.90;;;;;;4976745;28;37468;-81
2022/11/02 00:10:19;;;;;;;11.95;2.50;;;12.20;99.90;;;;;;4978549;28;39188;-81
2022/11/02 00:12:46;;;;;;;20.70;2.95;;;12.20;99.90;;;;;;4971399;28;36102;-82
2022/11/02 00:15:23;;;;;;;11.30;1.20;;;12.20;99.90;;;;;;4937347;28;39502;-83
2022/11/02 00:17:54;;;;;;;4.15;0.90;;;11.40;99.90;;;;;;4968051;28;37201;-81
2022/11/02 00:20:56;;;;;;;4.93;1.20;;;10.90;99.90;;;;;;4965265;28;37134;-82
2022/11/02 00:23:42;;;;;;;9.10;1.02;;;10.60;99.90;;;;;;4933408;28;37331;-82
2022/11/02 00:26:09;;;;;;;4.07;0.60;;;10.50;99.90;;;;;;4968189;28;38904;-81
2022/11/02 00:28:35;;;;;;;5.07;0.87;;;10.40;99.90;;;;;;4971675;28;36784;-81
2022/11/02 00:31:05;;;;;;;6.40;1.07;;;10.40;99.90;;;;;;4988916;28;38947;-81
2022/11/02 00:33:33;;;;;;;7.93;0.70;;;10.40;99.90;;;;;;4960333;28;48272;-82
2022/11/02 00:36:05;;;;;;;4.57;1.10;;;10.40;99.90;;;;;;4971484;28;38481;-81
2022/11/02 00:38:34;;;;;;;9.73;1.40;;;10.40;99.90;;;;;;4953459;28;48053;-81
2022/11/02 00:41:07;;;;;;;7.07;1.10;;;10.50;99.90;;;;;;4988168;28;38737;-81
2022/11/02 00:43:34;;;;;;;4.90;0.80;;;10.60;99.90;;;;;;4973081;28;47541;-82
2022/11/02 00:46:01;;;;;;;10.10;1.10;;;10.60;99.90;;;;;;4976503;28;38906;-80
2022/11/02 00:48:28;;;;;;;7.03;0.73;;;10.70;99.90;;;;;;4983337;28;38712;-79
2022/11/02 00:50:57;;;;;;;5.53;0.93;;;10.70;99.90;;;;;;4979630;28;37900;-81
2022/11/02 00:53:25;;;;;;;8.57;1.10;;;10.60;99.90;;;;;;4971266;28;37994;-81
2022/11/02 00:56:03;;;;;;;10.10;1.43;;;10.60;99.90;;;;;;4966987;28;39150;-81
2022/11/02 00:58:30;;;;;;;16.47;1.67;;;10.60;99.90;;;;;;4960023;28;37410;-81
2022/11/02 01:01:07;;;;;;;11.87;1.50;;;10.60;99.90;;;;;;4969692;28;39547;-82
2022/11/02 01:03:33;;;;;;;9.40;1.20;;;10.60;99.90;;;;;;4959884;28;48544;-82
2022/11/02 01:06:10;;;;;;;11.30;1.13;;;10.60;99.90;;;;;;4948715;28;40261;-81
2022/11/02 01:08:36;;;;;;;13.97;1.43;;;10.60;99.90;;;;;;4935353;28;48656;-81
2022/11/02 01:11:28;;;;;;;9.20;1.70;;;10.60;99.90;;;;;;4943850;28;39639;-81
2022/11/02 01:13:54;;;;;;;13.03;1.60;;;10.60;99.90;;;;;;4948592;28;47423;-81
2022/11/02 01:16:21;;;;;;;9.10;1.67;;;10.60;99.90;;;;;;4948511;28;38073;-80
2022/11/02 01:18:56;;;;;;;10.10;1.10;;;10.50;99.90;;;;;;4949330;28;37146;-81
2022/11/02 01:21:24;;;;;;;9.30;0.90;;;10.50;99.90;;;;;;4933252;28;36645;-82
2022/11/02 01:24:10;;;;;;;9.70;1.70;;;10.50;99.90;;;;;;4950331;28;37615;-81
2022/11/02 01:27:02;;;;;;;11.70;1.70;;;10.50;99.90;;;;;;4962138;28;48499;-82
2022/11/02 01:29:34;;;;;;;11.63;1.50;;;10.50;99.90;;;;;;4950820;28;47651;-82
2022/11/02 01:32:01;;;;;;;10.77;1.40;;;10.60;99.90;;;;;;4952731;28;37268;-81
2022/11/02 01:34:34;;;;;;;9.57;1.17;;;10.60;99.90;;;;;;4930887;28;35223;-81
2022/11/02 01:37:12;;;;;;;9.93;1.10;;;10.70;99.90;;;;;;4951455;28;39198;-82
2022/11/02 01:39:41;;;;;;;10.97;1.70;;;10.90;99.90;;;;;;4947105;28;47630;-81
2022/11/02 01:42:38;;;;;;;9.13;1.80;;;10.90;99.90;;;;;;4934902;28;38645;-80
2022/11/02 01:45:18;;;;;;;10.77;1.33;;;11.00;99.90;;;;;;4943270;28;36701;-80
2022/11/02 01:47:47;;;;;;;14.90;1.60;;;11.00;99.90;;;;;;4952454;28;38027;-81
2022/11/02 01:50:22;;;;;;;10.90;1.90;;;11.10;99.90;;;;;;4949767;28;39466;-80
2022/11/02 01:52:49;;;;;;;11.53;1.87;;;11.20;99.90;;;;;;4947110;28;38395;-81
2022/11/02 01:55:28;;;;;;;11.30;1.97;;;11.30;99.90;;;;;;4951593;28;36373;-80
2022/11/02 01:58:03;;;;;;;10.00;1.60;;;11.40;99.90;;;;;;4934280;29;38522;-82
2022/11/02 02:03:20;;;;;;;12.40;2.45;;;11.70;99.90;;;;;;5255074;23;20058;-80
2022/11/02 02:05:57;;;;;;;10.85;1.80;;;11.70;99.90;;;;;;4933347;28;37272;-80
2022/11/02 02:08:25;;;;;;;14.32;1.85;;;11.70;99.90;;;;;;4930739;29;37815;-79
2022/11/02 02:10:56;;;;;;;7.28;1.80;;;11.80;99.90;;;;;;4920925;29;37832;-81
2022/11/02 02:13:25;;;;;;;10.95;1.70;;;11.80;99.90;;;;;;4937913;28;36836;-81
2022/11/02 02:16:07;;;;;;;9.93;2.22;;;11.80;99.90;;;;;;4936572;28;37291;-80
2022/11/02 02:18:47;;;;;;;12.48;2.10;;;11.70;99.90;;;;;;4936460;29;48361;-80
2022/11/02 02:21:36;;;;;;;14.55;2.08;;;11.70;99.90;;;;;;4951956;28;37257;-81
2022/11/02 02:24:13;;;;;;;12.10;2.08;;;11.80;99.90;;;;;;4913631;28;37723;-80
2022/11/02 02:27:03;;;;;;;12.95;2.25;;;11.80;99.90;;;;;;4962115;28;35613;-80
2022/11/02 02:29:52;;;;;;;13.32;2.35;;;11.80;99.90;;;;;;4930838;28;48518;-81
2022/11/02 02:32:42;;;;;;;11.70;1.67;;;11.70;99.90;;;;;;4936878;28;39107;-80
2022/11/02 02:35:20;;;;;;;9.60;1.98;;;11.60;99.90;;;;;;4954943;28;39358;-81
2022/11/02 02:38:04;;;;;;;9.57;2.00;;;11.50;99.90;;;;;;4935411;28;36936;-81
2022/11/02 02:40:36;;;;;;;9.85;2.20;;;11.50;99.90;;;;;;4951907;28;49228;-82
2022/11/02 02:43:25;;;;;;;9.60;2.10;;;11.50;99.90;;;;;;4928609;28;37603;-82
2022/11/02 02:46:04;;;;;;;15.05;2.30;;;11.50;99.90;;;;;;4933260;28;37213;-82
2022/11/02 02:48:38;;;;;;;12.95;3.90;;;11.50;99.90;;;;;;4915609;29;47179;-82
2022/11/02 02:51:11;;;;;;;14.75;2.72;;;11.50;99.90;;;;;;4915151;29;36207;-80
2022/11/02 02:53:44;;;;;;;14.45;2.17;;;11.60;99.90;;;;;;4930559;28;48479;-81
2022/11/02 02:56:17;;;;;;;11.13;2.17;;;11.60;99.90;;;;;;4916416;28;37344;-80
2022/11/02 02:59:01;;;;;;;19.15;3.03;;;11.70;99.90;;;;;;4899163;29;37494;-80
2022/11/02 03:01:30;;;;;;;21.40;3.13;;;11.70;99.90;;;;;;4926829;28;38468;-80
2022/11/02 03:03:56;;;;;;;19.10;3.03;;;11.80;99.90;;;;;;4923058;28;39207;-80
2022/11/02 03:06:27;;;;;;;18.70;2.65;;;11.90;99.90;;;;;;4951443;28;36803;-79
2022/11/02 03:09:18;;;;;;;18.40;2.83;;;12.00;99.90;;;;;;4947894;28;37717;-80
2022/11/02 03:12:02;;;;;;;18.88;3.13;;;12.00;99.90;;;;;;4945596;28;47214;-82
2022/11/02 03:14:39;;;;;;;16.67;2.47;;;11.90;99.90;;;;;;4952585;28;48413;-82
2022/11/02 03:17:20;;;;;;;20.92;3.17;;;11.80;99.90;;;;;;4951256;28;37379;-82
2022/11/02 03:20:19;;;;;;;22.58;2.95;;;11.80;99.90;;;;;;4938964;28;36831;-80
2022/11/02 03:23:07;;;;;;;15.68;3.00;;;11.70;99.90;;;;;;4944666;28;47037;-82
2022/11/02 03:25:55;;;;;;;16.13;2.97;;;11.70;99.90;;;;;;4946926;28;47091;-81
2022/11/02 03:28:46;;;;;;;27.10;2.90;;;11.70;99.90;;;;;;4944726;28;40964;-81
2022/11/02 03:31:31;;;;;;;19.75;4.00;;;11.60;99.90;;;;;;4954253;28;37491;-81
2022/11/02 03:34:23;;;;;;;21.25;2.83;;;11.60;99.90;;;;;;4953078;28;39497;-81
2022/11/02 03:37:17;;;;;;;18.17;3.40;;;11.60;99.90;;;;;;4945727;29;45951;-82
2022/11/02 03:39:52;;;;;;;21.20;2.85;;;11.60;99.90;;;;;;4941365;28;48076;-80
2022/11/02 03:42:25;;;;;;;24.67;3.90;;;11.60;99.90;;;;;;4949667;28;38395;-80
2022/11/02 03:44:58;;;;;;;21.50;2.73;;;11.60;99.90;;;;;;4950719;29;37779;-81
2022/11/02 03:47:25;;;;;;;;;;;11.50;99.90;;;;;;4953415;28;39292;-80
2022/11/02 03:49:54;;;;;;;21.40;3.17;;;11.40;99.90;;;;;;4956374;28;37442;-81
2022/11/02 03:52:24;;;;;;;23.30;2.90;;;11.30;99.90;;;;;;4955421;28;36403;-81
2022/11/02 03:55:11;;;;;;;24.77;3.63;;;11.30;99.90;;;;;;4948964;28;38682;-81
2022/11/02 03:57:50;;;;;;;21.57;3.03;;;11.40;99.90;;;;;;4945071;28;47133;-81
2022/11/02 04:00:24;;;;;;;19.85;3.08;;;11.40;99.90;;;;;;4949505;28;37283;-82
2022/11/02 04:02:58;;;;;;;24.38;3.30;;;11.50;99.90;;;;;;4955500;28;36458;-81
2022/11/02 04:05:33;;;;;;;22.23;3.38;;;11.60;99.90;;;;;;4960474;28;38842;-81
2022/11/02 04:16:14;;;;;;;18.33;3.00;;;11.60;99.90;;;;;;4947347;28;40010;-82
2022/11/02 04:21:26;;;;;;;21.30;3.22;;;11.50;99.90;;;;;;4950381;28;39475;-81
2022/11/02 04:26:48;;;;;;;27.45;3.65;;;11.30;99.90;;;;;;4942908;28;49130;-81
2022/11/02 04:29:16;;;;;;;23.13;3.40;;;11.40;99.90;;;;;;4956626;28;38251;-81
2022/11/02 04:31:43;;;;;;;22.40;3.10;;;11.50;99.90;;;;;;4949880;28;38201;-81
2022/11/02 04:34:09;;;;;;;28.55;3.45;;;11.50;99.90;;;;;;4948901;28;37039;-82
2022/11/02 04:36:37;;;;;;;17.33;2.47;;;11.50;99.90;;;;;;4962039;28;37840;-82
2022/11/02 04:39:05;;;;;;;19.88;2.95;;;11.60;99.90;;;;;;4962251;28;39049;-82
2022/11/02 04:41:43;;;;;;;19.45;3.22;;;11.70;99.90;;;;;;4946036;28;38639;-81
2022/11/02 04:44:15;;;;;;;14.65;2.33;;;11.70;99.90;;;;;;4952740;28;37931;-81
2022/11/02 04:46:43;;;;;;;17.38;2.88;;;11.70;99.90;;;;;;4948078;28;39903;-82
2022/11/02 04:49:10;;;;;;;15.90;2.10;;;11.70;99.90;;;;;;4952231;28;39297;-81
2022/11/02 04:51:39;;;;;;;13.02;1.80;;;11.70;99.90;;;;;;4947118;28;38191;-82
2022/11/02 04:54:08;;;;;;;11.38;1.90;;;11.80;99.90;;;;;;4943202;28;36066;-81
2022/11/02 04:56:37;;;;;;;20.40;2.28;;;11.90;99.90;;;;;;4955475;28;40940;-83
2022/11/02 04:59:11;;;;;;;8.93;1.55;;;11.90;99.90;;;;;;4953169;28;39230;-82
2022/11/02 05:01:37;;;;;;;13.65;2.40;;;11.80;99.90;;;;;;4952401;28;49016;-81
2022/11/02 05:04:09;;;;;;;5.82;1.45;;;11.60;99.90;;;;;;4938412;28;38621;-81
2022/11/02 05:06:38;;;;;;;17.93;2.60;;;11.50;99.90;;;;;;4933895;28;39385;-82
2022/11/02 05:09:05;;;;;;;15.30;2.47;;;11.40;99.90;;;;;;4940515;28;38582;-80
2022/11/02 05:11:33;;;;;;;29.88;3.10;;;11.40;99.90;;;;;;4932192;28;37727;-79
2022/11/02 05:14:00;;;;;;;14.27;2.97;;;11.40;99.90;;;;;;4936514;28;38822;-81
2022/11/02 05:16:27;;;;;;;19.30;2.20;;;11.40;99.90;;;;;;4925738;28;39821;-81
2022/11/02 05:18:53;;;;;;;14.50;1.75;;;11.30;99.90;;;;;;4915752;28;37033;-82
2022/11/02 05:21:19;;;;;;;10.23;1.83;;;11.30;99.90;;;;;;4935897;28;38510;-81
2022/11/02 05:23:46;;;;;;;13.17;2.07;;;11.40;99.90;;;;;;4905158;29;36214;-82
2022/11/02 05:26:12;;;;;;;12.85;1.88;;;11.50;99.90;;;;;;4916269;29;37340;-80
2022/11/02 05:28:41;;;;;;;19.97;2.37;;;11.50;99.90;;;;;;4917573;28;37489;-81
2022/11/02 05:31:07;;;;;;;16.77;2.23;;;11.50;99.90;;;;;;4933195;29;39642;-82
2022/11/02 05:33:34;;;;;;;18.08;2.13;;;11.50;99.90;;;;;;4925897;29;39317;-82
2022/11/02 05:36:00;;;;;;;9.98;1.55;;;11.50;99.90;;;;;;4922257;29;37480;-81
2022/11/02 05:38:27;;;;;;;14.70;2.45;;;11.50;99.90;;;;;;4913945;29;38431;-82
2022/11/02 05:40:58;;;;;;;10.30;1.15;;;11.60;99.90;;;;;;4918414;29;38364;-81
2022/11/02 05:43:25;;;;;;;13.23;2.20;;;11.60;99.90;;;;;;4935517;29;37785;-81
2022/11/02 05:45:56;;;;;;;12.30;1.75;;;11.60;99.90;;;;;;4908658;29;38136;-82
2022/11/02 05:48:23;;;;;;;16.30;1.92;;;11.60;99.90;;;;;;4933430;28;37622;-81
2022/11/02 05:51:01;;;;;;;19.10;1.75;;;11.60;99.90;;;;;;4903089;29;38399;-83
2022/11/02 05:53:31;;;;;;;14.82;1.83;;;11.70;99.90;;;;;;4927162;28;38529;-82
2022/11/02 05:56:04;;;;;;;13.98;2.50;;;11.70;99.90;;;;;;4915294;29;38326;-81
2022/11/02 05:58:37;;;;;;;10.05;1.85;;;11.70;99.90;;;;;;4932688;28;50353;-81
2022/11/02 06:01:52;;;;;;;13.80;1.95;;;11.70;99.90;;;;;;4903518;29;37746;-83
2022/11/02 06:04:19;;;;;;;16.00;2.90;;;11.60;99.90;;;;;;4884408;28;48500;-82
2022/11/02 06:06:46;;;;;;;13.50;2.15;;;11.60;99.90;;;;;;4911682;29;37627;-81
2022/11/02 06:09:12;;;;;;;12.52;1.88;;;11.60;99.90;;;;;;4930180;29;38250;-81
2022/11/02 06:11:41;;;;;;;9.75;1.55;;;11.60;99.90;;;;;;4921961;29;37391;-81
2022/11/02 06:14:14;;;;;;;18.52;2.88;;;11.70;99.90;;;;;;4904766;28;38617;-82
2022/11/02 06:16:40;;;;;;;;;;;11.70;99.90;;;;;;4916061;29;38569;-82
2022/11/02 06:19:09;;;;;;;14.63;1.70;;;11.70;99.90;;;;;;4908506;29;39820;-81
2022/11/02 06:21:40;;;;;;;14.52;2.72;;;11.70;99.90;;;;;;4935046;29;38592;-82
2022/11/02 06:24:14;;;;;;;12.85;2.25;;;11.80;99.90;;;;;;4918058;29;35584;-82
2022/11/02 06:26:40;;;;;;;16.08;2.63;;;11.80;99.90;;;;;;4916548;29;38342;-80
2022/11/02 06:29:13;;;;;;;12.98;2.00;;;11.80;99.90;;;;;;4929208;29;39133;-81
2022/11/02 06:31:42;;;;;;;;;;;11.80;99.90;;;;;;4931103;29;37113;-79
2022/11/02 06:34:08;;;;;;;16.17;1.83;;;11.70;99.90;;;;;;4908790;29;37689;-82
2022/11/02 06:36:38;;;;;;;12.35;2.72;;;11.70;99.90;;;;;;4916763;29;39564;-81
2022/11/02 06:39:13;;;;;;;15.23;2.33;;;11.70;99.90;;;;;;4904423;29;38146;-82
2022/11/02 06:41:51;;;;;;;10.77;2.30;;;11.60;99.90;;;;;;4928116;29;37728;-82
2022/11/02 06:44:25;;;;;;;16.35;2.05;;;11.60;99.90;;;;;;4914214;29;37284;-80
2022/11/02 06:46:56;;;;;;;8.70;2.07;;;11.70;99.90;;;;;;4916890;29;39093;-82
2022/11/02 06:49:24;;;;;;;10.03;1.50;;;11.60;99.90;;;;;;4891175;29;38544;-81
2022/11/02 06:51:51;;;;;;;11.23;2.93;;;11.60;99.90;;;;;;4916645;29;36891;-82
2022/11/02 06:54:20;;;;;;;14.57;1.87;;;11.60;99.90;;;;;;4914378;29;37283;-81
2022/11/02 06:56:49;;;;;;;11.97;2.43;;;11.60;99.90;;;;;;4915570;29;37809;-81
2022/11/02 06:59:16;;;;;;;10.80;1.63;;;11.60;99.90;;;;;;4919488;29;38697;-81
2022/11/02 07:01:45;;;;;;;9.57;1.60;;;11.60;99.90;;;;;;4918211;29;38416;-82
2022/11/02 07:04:22;;;;;;;9.87;1.67;;;11.60;99.90;;;;;;4900686;29;36406;-81
2022/11/02 07:06:54;;;;;;;11.13;1.63;;;11.60;99.90;;;;;;4908013;29;39283;-81
2022/11/02 07:09:26;;;;;;;20.63;2.00;;;11.60;99.90;;;;;;4912561;29;37322;-81
2022/11/02 07:12:11;;;;;;;13.73;2.08;;;11.60;99.90;;;;;;4931592;29;38055;-81
2022/11/02 07:14:46;;;;;;;13.20;1.70;;;11.80;99.90;;;;;;4935812;29;37716;-81
2022/11/02 07:17:16;;;;;;;14.05;1.98;;;11.70;99.90;;;;;;4908054;29;38726;-82
2022/11/02 07:19:47;;;;;;;13.05;1.83;;;11.60;99.90;;;;;;4908044;29;38375;-82
2022/11/02 07:22:17;;;;;;;12.98;2.33;;;11.60;99.90;;;;;;4907530;29;39226;-81
2022/11/02 07:24:52;;;;;;;8.73;1.73;;;11.60;99.90;;;;;;4903606;29;37747;-81
2022/11/02 07:27:19;;;;;;;8.80;1.63;;;11.70;99.90;;;;;;4909658;29;37636;-81
2022/11/02 07:29:46;;;;;;;12.68;2.05;;;11.70;99.90;;;;;;4923449;29;38950;-82
2022/11/02 07:32:20;;;;;;;12.32;2.17;;;11.80;99.90;;;;;;4907359;28;37014;-82
2022/11/02 07:34:49;;;;;;;10.65;2.20;;;11.80;99.90;;;;;;4920224;29;35785;-82
2022/11/02 07:37:18;;;;;;;9.90;2.20;;;11.80;99.90;;;;;;4887240;29;38889;-82
2022/11/02 07:39:48;;;;;;;13.85;1.63;;;11.80;99.90;;;;;;4918192;29;37581;-80
2022/11/02 07:42:15;;;;;;;13.20;2.00;;;11.80;99.90;;;;;;4911665;28;38073;-81
2022/11/02 07:44:47;;;;;;;12.55;1.75;;;11.80;99.90;;;;;;4919408;29;36229;-81
2022/11/02 07:47:14;;;;;;;14.00;2.78;;;11.90;99.90;;;;;;4897444;28;38959;-82
2022/11/02 07:49:42;;;;;;;11.10;1.77;;;11.90;99.90;;;;;;4913217;29;37455;-81
2022/11/02 07:52:14;;;;;;;10.60;1.77;;;11.80;99.90;;;;;;4918857;29;37868;-82
2022/11/02 07:54:43;;;;;;;11.48;1.83;;;11.80;99.90;;;;;;4918103;29;36797;-81
2022/11/02 07:57:11;;;;;;;10.88;2.30;;;11.80;99.90;;;;;;4921045;29;38338;-82
2022/11/02 07:59:46;;;;;;;16.85;2.75;;;11.70;99.90;;;;;;4906946;29;37204;-83
2022/11/02 08:02:15;;;;;;;15.95;1.95;;;11.70;99.90;;;;;;4878373;29;39312;-82
2022/11/02 08:04:59;;;;;;;14.50;2.58;;;11.80;99.90;;;;;;4910404;29;36109;-81
2022/11/02 08:07:34;;;;;;;9.68;1.52;;;11.70;99.90;;;;;;4920570;28;39529;-81
2022/11/02 08:10:04;;;;;;;11.60;1.75;;;11.70;99.90;;;;;;4920957;29;38360;-81
2022/11/02 08:12:42;;;;;;;12.53;2.33;;;11.70;99.90;;;;;;4913324;29;48166;-81
2022/11/02 08:15:10;;;;;;;10.95;2.00;;;11.70;99.90;;;;;;4934453;29;38620;-82
2022/11/02 08:17:45;;;;;;;17.67;2.88;;;11.70;99.90;;;;;;4904211;29;38322;-82
2022/11/02 08:20:31;;;;;;;13.32;1.88;;;11.70;99.90;;;;;;4919837;28;39239;-84
2022/11/02 08:22:58;;;;;;;10.40;1.80;;;11.60;99.90;;;;;;4917505;29;37871;-84
2022/11/02 08:25:29;;;;;;;14.20;1.70;;;11.70;99.90;;;;;;4911125;29;38475;-85
2022/11/02 08:27:59;;;;;;;11.60;2.08;;;11.70;99.90;;;;;;4919019;29;39209;-84
2022/11/02 08:30:41;;;;;;;11.00;2.25;;;11.70;99.90;;;;;;4905068;29;37308;-84
2022/11/02 08:33:12;;;;;;;13.63;2.20;;;11.80;99.90;;;;;;4927572;28;37751;-83
2022/11/02 08:36:10;;;;;;;16.08;1.83;;;11.80;99.90;;;;;;4947890;29;38541;-84
2022/11/02 08:38:45;;;;;;;12.00;2.13;;;11.90;99.90;;;;;;4918293;29;47507;-82
2022/11/02 08:41:18;;;;;;;12.95;2.25;;;11.90;99.90;;;;;;4916316;28;38665;-85
2022/11/02 08:44:08;;;;;;;12.68;2.00;;;11.90;99.90;;;;;;4948489;28;37860;-84
2022/11/02 08:46:42;;;;;;;14.70;2.53;;;12.00;99.90;;;;;;4920159;29;47773;-83
2022/11/02 08:49:27;;;;;;;12.57;2.22;;;12.00;99.90;;;;;;4931603;29;40041;-83
2022/11/02 08:51:57;;;;;;;;;;;12.10;99.90;;;;;;4938486;29;37884;-83
2022/11/02 08:54:26;;;;;;;10.75;1.52;;;12.20;99.90;;;;;;4946097;29;39421;-84
2022/11/02 08:56:58;;;;;;;15.35;3.03;;;12.20;99.90;;;;;;4920848;29;35893;-84
2022/11/02 08:59:40;;;;;;;17.90;2.50;;;12.30;99.90;;;;;;4912041;28;40080;-84
2022/11/02 09:02:09;;;;;;;12.05;2.05;;;12.40;99.90;;;;;;4888541;29;38209;-83
2022/11/02 09:04:45;;;;;;;12.90;1.33;;;12.50;99.90;;;;;;4938620;28;37927;-82
2022/11/02 09:07:25;;;;;;;14.07;2.55;;;12.60;99.90;;;;;;4955884;28;36085;-84
2022/11/02 09:10:41;;;;;;;13.60;2.13;;;12.60;99.90;;;;;;4964382;28;38141;-83
2022/11/02 09:13:24;;;;;;;18.30;2.67;;;12.80;99.90;;;;;;4954898;28;49069;-83
2022/11/02 09:16:09;;;;;;;14.32;2.08;;;13.00;99.90;;;;;;4976935;28;37934;-83
2022/11/02 09:18:42;;;;;;;16.00;2.30;;;13.20;99.90;;;;;;4940467;29;37508;-85
2022/11/02 09:21:16;;;;;;;14.60;2.40;;;13.20;99.90;;;;;;4931037;28;37617;-84
2022/11/02 09:23:48;;;;;;;14.23;2.17;;;13.20;99.90;;;;;;4942379;28;36830;-85
2022/11/02 09:26:21;;;;;;;11.85;2.35;;;13.20;99.90;;;;;;4957633;28;39236;-84
2022/11/02 09:28:49;;;;;;;13.93;2.40;;;13.20;99.90;;;;;;4954343;28;35871;-83
2022/11/02 09:31:28;;;;;;;12.50;2.53;;;13.10;99.90;;;;;;4937999;28;37473;-85
2022/11/02 09:34:00;;;;;;;12.23;2.50;;;12.80;99.90;;;;;;4944488;28;39047;-84
2022/11/02 09:36:45;;;;;;;10.98;2.20;;;12.80;99.90;;;;;;4941533;28;37028;-84
2022/11/02 09:43:12;;;;;;;14.45;2.20;;;12.70;99.90;;;;;;4958954;28;50729;-83
2022/11/02 09:46:02;;;;;;;15.05;1.73;;;12.80;99.90;;;;;;4944441;28;47108;-83
2022/11/02 09:49:08;;;;;;;13.98;2.17;;;12.90;99.90;;;;;;4908299;29;40351;-84
2022/11/02 09:51:50;;;;;;;14.05;2.33;;;12.90;99.90;;;;;;4949041;28;48537;-84
2022/11/02 09:54:34;;;;;;;14.95;2.80;;;13.10;99.90;;;;;;4952008;28;38079;-84
2022/11/02 09:57:30;;;;;;;16.02;2.15;;;13.10;99.90;;;;;;4936980;28;38914;-83
2022/11/02 10:02:57;;;;;;;14.13;3.05;;;13.20;99.90;;;;;;5080660;23;20043;-84
2022/11/02 10:06:04;;;;;;;13.70;2.03;;;13.10;99.90;;;;;;4938040;28;37371;-85
2022/11/02 10:08:48;;;;;;;15.48;2.25;;;13.10;99.90;;;;;;4939421;28;48415;-84
2022/11/02 10:11:46;;;;;;;15.30;2.35;;;13.10;99.90;;;;;;4936469;28;39475;-81
2022/11/02 10:14:31;;;;;;;14.30;2.40;;;13.10;99.90;;;;;;4935707;28;37107;-82
2022/11/02 10:17:30;;;;;;;16.67;2.83;;;13.00;99.90;;;;;;4931644;28;40001;-82
2022/11/02 10:20:25;;;;;;;14.02;1.83;;;13.10;99.90;;;;;;4912619;28;47524;-81
2022/11/02 10:23:02;;;;;;;16.75;2.55;;;13.10;99.90;;;;;;4923390;28;47651;-81
2022/11/02 10:25:28;;;;;;;15.85;3.22;;;13.10;99.90;;;;;;4920017;28;36190;-81
2022/11/02 10:28:09;;;;;;;14.73;1.88;;;13.20;99.90;;;;;;4923769;29;38609;-81
2022/11/02 10:30:48;;;;;;;17.40;2.75;;;13.10;99.90;;;;;;4918911;29;49451;-82
2022/11/02 10:33:36;;;;;;;16.38;2.67;;;13.20;99.90;;;;;;4919931;28;38605;-82
2022/11/02 10:39:51;;;;;;;15.70;3.13;;;13.30;99.90;;;;;;4919333;28;49801;-81
2022/11/02 10:42:50;;;;;;;20.17;2.63;;;13.30;99.90;;;;;;4936615;28;37491;-84
2022/11/02 10:45:47;;;;;;;12.73;1.98;;;13.30;99.90;;;;;;4937661;28;40986;-82
2022/11/02 10:48:50;;;;;;;17.23;2.63;;;13.50;99.90;;;;;;4949906;28;37952;-82
2022/11/02 10:51:20;;;;;;;14.45;2.83;;;13.50;99.90;;;;;;4911703;29;38377;-81
2022/11/02 10:53:50;;;;;;;14.52;2.53;;;13.50;99.90;;;;;;4934666;28;38531;-82
2022/11/02 10:56:46;;;;;;;16.02;2.80;;;13.60;99.90;;;;;;4934031;28;37775;-84
2022/11/02 10:59:40;;;;;;;18.60;2.60;;;13.60;99.90;;;;;;4932383;28;38706;-83
2022/11/02 11:02:15;;;;;;;21.88;2.70;;;13.70;99.90;;;;;;4935928;29;37391;-83
2022/11/02 11:04:48;;;;;;;18.13;2.95;;;13.70;99.90;;;;;;4930766;29;38604;-83
2022/11/02 11:07:25;;;;;;;13.73;2.28;;;13.70;99.90;;;;;;4919154;28;38047;-82
2022/11/02 11:09:54;;;;;;;13.13;2.22;;;13.70;99.90;;;;;;4918951;29;37629;-80
2022/11/02 11:12:33;;;;;;;14.68;3.22;;;13.80;99.90;;;;;;4911786;29;37881;-81
2022/11/02 11:15:38;;;;;;;14.00;2.65;;;13.90;99.90;;;;;;4916703;29;39969;-80
2022/11/02 11:18:12;;;;;;;15.30;2.88;;;14.00;99.90;;;;;;4904573;28;47907;-80
2022/11/02 11:20:40;;;;;;;13.05;2.28;;;14.10;99.90;;;;;;4913500;29;35974;-80
2022/11/02 11:23:26;;;;;;;9.57;1.92;;;14.10;99.90;;;;;;4894295;28;38494;-80
2022/11/02 11:26:16;;;;;;;13.88;2.83;;;14.10;99.90;;;;;;4880362;29;37960;-80
2022/11/02 11:28:56;;;;;;;12.73;2.10;;;14.20;99.90;;;;;;4878873;29;47052;-81
2022/11/02 11:31:24;;;;;;;20.23;3.05;;;14.30;99.90;;;;;;4881325;29;38194;-81
2022/11/02 11:34:21;;;;;;;13.50;2.50;;;14.40;99.90;;;;;;4886893;28;40629;-83
2022/11/02 11:36:48;;;;;;;18.77;3.00;;;14.40;99.90;;;;;;4906545;29;48199;-80
2022/11/02 11:39:29;;;;;;;21.02;3.53;;;14.40;99.90;;;;;;4895611;29;38716;-84
2022/11/02 11:41:56;;;;;;;9.98;2.03;;;14.50;99.90;;;;;;4903699;29;36201;-81
2022/11/02 11:44:33;;;;;;;12.35;2.95;;;14.60;99.90;;;;;;4883253;29;37590;-83
2022/11/02 11:47:03;;;;;;;14.40;2.80;;;14.50;99.90;;;;;;4914065;29;39693;-82
2022/11/02 11:49:35;;;;;;;10.85;2.30;;;14.50;99.90;;;;;;4910353;29;50036;-81
2022/11/02 11:52:02;;;;;;;11.50;1.85;;;14.60;99.90;;;;;;4890093;29;36050;-83
2022/11/02 11:54:30;;;;;;;14.45;3.05;;;14.70;99.90;;;;;;4903283;29;47767;-81
2022/11/02 11:56:59;;;;;;;16.35;2.80;;;14.80;99.90;;;;;;4899738;29;38412;-81
2022/11/02 11:59:42;;;;;;;17.80;2.58;;;14.70;99.90;;;;;;4893655;29;36758;-83
2022/11/02 12:02:36;;;;;;;13.93;3.08;;;14.70;99.90;;;;;;4907250;28;39231;-83
2022/11/02 12:05:14;;;;;;;11.93;2.75;;;14.80;99.90;;;;;;4946524;28;39533;-83
2022/11/02 12:07:56;;;;;;;13.50;2.92;;;14.80;99.90;;;;;;4925880;28;50141;-82
2022/11/02 12:10:34;;;;;;;13.90;3.03;;;14.80;99.90;;;;;;4931567;28;38359;-83
2022/11/02 12:13:47;;;;;;;12.20;2.30;;;14.90;99.90;;;;;;4930248;28;36787;-82
2022/11/02 12:16:55;;;;;;;14.25;2.22;;;14.90;99.90;;;;;;4909278;29;47122;-83
2022/11/02 12:19:35;;;;;;;11.20;2.15;;;14.80;99.90;;;;;;4902522;29;39060;-82
2022/11/02 12:22:13;;;;;;;16.10;2.53;;;14.90;99.90;;;;;;4928062;28;36568;-82
2022/11/02 12:25:31;;;;;;;24.77;3.90;;;14.90;99.90;;;;;;4930594;28;48203;-82
2022/11/02 12:28:03;;;;;;;16.40;3.38;;;15.00;99.90;;;;;;4915702;28;48846;-83
2022/11/02 12:30:56;;;;;;;14.30;3.17;;;15.00;99.90;;;;;;4922127;29;48162;-84
2022/11/02 12:33:47;;;;;;;13.30;2.22;;;15.00;99.90;;;;;;4900565;29;37988;-83
2022/11/02 12:36:22;;;;;;;19.20;3.10;;;14.90;99.90;;;;;;4944599;28;36739;-81
2022/11/02 12:39:06;;;;;;;19.10;3.15;;;14.90;99.90;;;;;;4938062;28;40274;-82
2022/11/02 12:41:54;;;;;;;11.75;2.03;;;14.90;99.90;;;;;;4949831;28;48035;-81
2022/11/02 12:44:38;;;;;;;17.83;3.35;;;15.00;99.90;;;;;;4946065;28;38552;-80
2022/11/02 12:47:30;;;;;;;25.33;3.33;;;14.80;99.90;;;;;;4935126;28;38443;-83
2022/11/02 12:50:46;;;;;;;16.92;3.38;;;14.80;99.90;;;;;;4950966;28;40036;-82
2022/11/02 12:53:42;;;;;;;19.52;3.47;;;14.70;99.90;;;;;;4936410;28;47727;-82
2022/11/02 12:56:24;;;;;;;13.25;3.33;;;14.80;99.90;;;;;;4952023;28;39895;-81
2022/11/02 12:58:51;;;;;;;19.35;3.33;;;14.90;99.90;;;;;;4950250;28;36437;-82
2022/11/02 13:01:34;;;;;;;17.75;2.92;;;15.00;99.90;;;;;;4940096;28;37682;-81
2022/11/02 13:04:18;;;;;;;15.13;3.17;;;15.00;99.90;;;;;;4951356;28;38468;-81
2022/11/02 13:06:48;;;;;;;15.32;3.53;;;14.70;99.90;;;;;;4934611;28;48874;-82
2022/11/02 13:09:24;;;;;;;17.33;3.78;;;14.70;99.90;;;;;;4952518;28;36804;-83
2022/11/02 13:12:13;;;;;;;17.60;4.30;;;14.80;99.90;;;;;;4951329;28;38567;-83
2022/11/02 13:14:43;;;;;;;17.23;3.95;;;14.80;99.90;;;;;;4936530;28;48134;-82
2022/11/02 13:17:36;;;;;;;23.80;4.85;;;14.80;99.90;;;;;;4941075;28;38198;-81
2022/11/02 13:20:13;;;;;;;;;;;14.80;99.90;;;;;;4941656;28;36940;-79
2022/11/02 13:22:41;;;;;;;15.32;3.80;;;14.70;99.90;;;;;;4921911;28;48642;-80
2022/11/02 13:25:18;;;;;;;14.77;3.20;;;14.80;99.90;;;;;;4906518;29;38999;-80
2022/11/02 13:27:54;;;;;;;23.17;3.83;;;14.70;99.90;;;;;;4928028;29;36944;-80
2022/11/02 13:30:37;;;;;;;21.40;4.22;;;14.50;99.90;;;;;;4943034;28;36177;-83
2022/11/02 13:33:21;;;;;;;19.15;4.38;;;14.60;99.90;;;;;;4951812;28;40548;-82
2022/11/02 13:35:49;;;;;;;19.20;3.67;;;14.50;99.90;;;;;;4941956;28;47552;-82
2022/11/02 13:38:34;;;;;;;21.15;3.58;;;14.40;99.90;;;;;;4933819;28;37702;-84
2022/11/02 13:41:22;;;;;;;18.83;3.10;;;14.50;99.90;;;;;;4953809;28;36972;-83
2022/11/02 13:44:13;;;;;;;14.38;2.95;;;14.70;99.90;;;;;;4934072;28;46871;-82
2022/11/02 13:46:55;;;;;;;23.20;4.35;;;14.70;99.90;;;;;;4933337;28;47547;-83
2022/11/02 13:49:40;;;;;;;20.90;3.42;;;14.70;99.90;;;;;;4934342;28;38374;-83
2022/11/02 13:52:18;;;;;;;15.47;3.97;;;14.70;99.90;;;;;;4922522;28;37792;-84
2022/11/02 13:54:58;;;;;;;17.75;3.67;;;14.70;99.90;;;;;;4919713;29;37262;-84